createdAt,value
2022-09-18T00:00:54.796Z,8.34
2022-09-18T00:01:49.887Z,8.45
2022-09-18T00:02:43.799Z,8.93
2022-09-18T00:03:38.814Z,9.88
2022-09-18T00:04:25.843Z,8.49
2022-09-18T00:04:59.868Z,7.19
2022-09-18T00:05:46.789Z,6.46
2022-09-18T00:06:30.854Z,6.61
2022-09-18T00:07:17.795Z,7.54
2022-09-18T00:07:51.858Z,6.91
2022-09-18T00:08:38.866Z,7.06
2022-09-18T00:09:17.896Z,5.89
2022-09-18T00:09:58.807Z,7.80
2022-09-18T00:10:38.973Z,8.05
2022-09-18T00:11:21.816Z,6.29
2022-09-18T00:12:02.031Z,7.26
2022-09-18T00:12:41.781Z,5.79
2022-09-18T00:13:21.871Z,5.69
2022-09-18T00:14:03.773Z,6.21
2022-09-18T00:14:44.840Z,6.00
2022-09-18T00:15:24.852Z,6.29
2022-09-18T00:16:04.896Z,5.71
2022-09-18T00:16:45.772Z,5.96
2022-09-18T00:17:25.963Z,7.20
2022-09-18T00:18:05.780Z,5.60
2022-09-18T00:18:47.143Z,5.14
2022-09-18T00:19:27.783Z,5.50
2022-09-18T00:20:07.817Z,4.66
2022-09-18T00:20:47.792Z,5.31
2022-09-18T00:21:31.975Z,5.09
2022-09-18T00:22:11.754Z,6.14
2022-09-18T00:22:51.860Z,6.00
2022-09-18T00:23:31.769Z,6.82
2022-09-18T00:24:12.884Z,6.75
2022-09-18T00:24:52.765Z,5.24
2022-09-18T00:25:32.880Z,5.55
2022-09-18T00:26:14.907Z,4.96
2022-09-18T00:26:55.969Z,5.13
2022-09-18T00:27:35.761Z,5.29
2022-09-18T00:28:15.841Z,4.74
2022-09-18T00:28:55.800Z,5.15
2022-09-18T00:29:35.839Z,5.78
2022-09-18T00:30:16.758Z,6.03
2022-09-18T00:30:57.059Z,5.91
2022-09-18T00:31:40.886Z,5.99
2022-09-18T00:32:21.868Z,5.89
2022-09-18T00:33:01.756Z,6.22
2022-09-18T00:33:42.897Z,6.47
2022-09-18T00:34:23.749Z,6.51
2022-09-18T00:35:03.855Z,5.24
2022-09-18T00:35:49.780Z,6.09
2022-09-18T00:36:30.842Z,5.82
2022-09-18T00:37:11.789Z,6.36
2022-09-18T00:37:51.839Z,5.79
2022-09-18T00:38:31.748Z,5.44
2022-09-18T00:39:12.895Z,5.90
2022-09-18T00:39:52.862Z,6.54
2022-09-18T00:40:32.893Z,6.97
2022-09-18T00:41:19.800Z,6.61
2022-09-18T00:41:59.855Z,6.66
2022-09-18T00:42:39.816Z,5.68
2022-09-18T00:43:30.872Z,5.54
2022-09-18T00:44:28.753Z,5.15
2022-09-18T00:45:10.629Z,6.13
2022-09-18T00:45:53.752Z,5.49
2022-09-18T00:46:40.956Z,6.21
2022-09-18T00:47:35.737Z,6.72
2022-09-18T00:48:15.765Z,5.24
2022-09-18T00:49:25.904Z,5.11
2022-09-18T00:50:17.859Z,6.45
2022-09-18T00:51:00.974Z,6.86
2022-09-18T00:51:43.737Z,5.97
2022-09-18T00:52:26.647Z,7.03
2022-09-18T00:53:12.738Z,5.88
2022-09-18T00:54:02.798Z,6.11
2022-09-18T00:54:48.795Z,5.44
2022-09-18T00:55:27.588Z,5.01
2022-09-18T00:56:08.742Z,4.71
2022-09-18T00:56:42.807Z,5.48
2022-09-18T00:57:23.880Z,5.19
2022-09-18T00:58:05.740Z,6.04
2022-09-18T00:58:40.516Z,6.13
2022-09-18T00:59:25.761Z,5.88
2022-09-18T01:00:11.794Z,6.25
2022-09-18T01:00:51.780Z,5.54
2022-09-18T01:01:31.862Z,6.18
2022-09-18T01:02:11.839Z,6.64
2022-09-18T01:02:53.942Z,5.82
2022-09-18T01:03:35.776Z,7.75
2022-09-18T01:04:19.885Z,9.06
2022-09-18T01:04:59.801Z,6.46
2022-09-18T01:06:22.929Z,5.90
2022-09-18T01:07:54.782Z,6.34
2022-09-18T01:09:06.835Z,5.41
2022-09-18T01:10:12.790Z,7.53
2022-09-18T01:11:22.834Z,9.02
2022-09-18T01:12:17.731Z,5.35
2022-09-18T01:13:06.818Z,5.90
2022-09-18T01:14:26.737Z,5.30
2022-09-18T01:15:43.776Z,5.35
2022-09-18T01:16:46.232Z,5.43
2022-09-18T01:17:58.746Z,6.51
2022-09-18T01:19:09.215Z,8.18
2022-09-18T01:20:34.725Z,6.84
2022-09-18T01:21:22.721Z,5.71
2022-09-18T01:23:01.897Z,5.68
2022-09-18T01:24:19.729Z,8.16
2022-09-18T01:25:08.801Z,8.59
2022-09-18T01:26:31.903Z,7.63
2022-09-18T01:27:16.851Z,6.96
2022-09-18T01:28:29.738Z,7.16
2022-09-18T01:29:30.808Z,7.65
2022-09-18T01:30:15.698Z,6.56
2022-09-18T01:30:57.903Z,6.89
2022-09-18T01:32:04.791Z,7.10
2022-09-18T01:32:53.786Z,6.90
2022-09-18T01:33:57.787Z,7.14
2022-09-18T01:35:14.182Z,7.71
2022-09-18T01:36:12.716Z,8.06
2022-09-18T01:37:14.760Z,6.75
2022-09-18T01:38:06.851Z,6.61
2022-09-18T01:39:04.686Z,7.16
2022-09-18T01:39:47.160Z,8.34
2022-09-18T01:40:51.678Z,7.88
2022-09-18T01:41:28.205Z,7.74
2022-09-18T01:42:16.711Z,6.56
2022-09-18T01:42:53.213Z,8.11
2022-09-18T01:43:42.691Z,7.47
2022-09-18T01:44:19.475Z,5.80
2022-09-18T01:45:09.692Z,4.91
2022-09-18T01:45:51.741Z,6.06
2022-09-18T01:46:38.852Z,6.63
2022-09-18T01:47:14.928Z,6.22
2022-09-18T01:48:01.740Z,5.81
2022-09-18T01:48:38.893Z,5.93
2022-09-18T01:49:23.945Z,7.09
2022-09-18T01:50:06.675Z,5.47
2022-09-18T01:50:45.771Z,5.91
2022-09-18T01:51:50.597Z,6.22
2022-09-18T01:52:40.681Z,7.76
2022-09-18T01:53:35.706Z,6.30
2022-09-18T01:54:17.559Z,5.66
2022-09-18T01:55:07.694Z,5.69
2022-09-18T01:55:42.859Z,5.26
2022-09-18T01:56:37.686Z,5.66
2022-09-18T01:57:16.651Z,6.25
2022-09-18T01:58:24.706Z,6.26
2022-09-18T01:59:08.705Z,7.70
2022-09-18T02:00:02.784Z,7.32
2022-09-18T02:00:48.681Z,6.13
2022-09-18T02:01:31.940Z,5.34
2022-09-18T02:02:17.754Z,4.13
2022-09-18T02:03:12.785Z,5.29
2022-09-18T02:03:58.681Z,5.22
2022-09-18T02:04:43.752Z,5.43
2022-09-18T02:05:30.784Z,5.89
2022-09-18T02:06:20.601Z,5.20
2022-09-18T02:07:33.725Z,5.76
2022-09-18T02:08:29.780Z,5.74
2022-09-18T02:09:17.710Z,3.96
2022-09-18T02:09:58.703Z,5.53
2022-09-18T02:11:16.654Z,5.05
2022-09-18T02:12:12.661Z,4.91
2022-09-18T02:13:07.692Z,5.96
2022-09-18T02:14:37.680Z,6.15
2022-09-18T02:15:21.664Z,6.04
2022-09-18T02:16:07.818Z,5.44
2022-09-18T02:16:57.681Z,5.25
2022-09-18T02:18:05.757Z,5.63
2022-09-18T02:18:50.726Z,5.35
2022-09-18T02:19:55.715Z,5.36
2022-09-18T02:20:38.722Z,5.22
2022-09-18T02:21:24.724Z,5.75
2022-09-18T02:22:06.652Z,5.18
2022-09-18T02:22:50.406Z,5.45
2022-09-18T02:23:32.644Z,5.44
2022-09-18T02:24:16.785Z,6.07
2022-09-18T02:24:59.641Z,4.91
2022-09-18T02:26:03.708Z,4.38
2022-09-18T02:26:59.669Z,5.22
2022-09-18T02:27:54.685Z,4.59
2022-09-18T02:28:50.645Z,6.26
2022-09-18T02:29:45.659Z,7.01
2022-09-18T02:30:40.657Z,4.28
2022-09-18T02:31:27.876Z,3.40
2022-09-18T02:32:01.681Z,4.57
2022-09-18T02:32:48.674Z,4.35
2022-09-18T02:33:54.828Z,4.55
2022-09-18T02:34:41.697Z,5.64
2022-09-18T02:35:16.716Z,4.80
2022-09-18T02:36:50.680Z,4.07
2022-09-18T02:37:51.699Z,3.29
2022-09-18T02:38:55.653Z,3.31
2022-09-18T02:39:33.784Z,3.70
2022-09-18T02:40:44.685Z,4.59
2022-09-18T02:41:40.693Z,6.05
2022-09-18T02:42:50.742Z,5.39
2022-09-18T02:44:00.753Z,3.71
2022-09-18T02:45:12.624Z,4.47
2022-09-18T02:46:40.751Z,4.14
2022-09-18T02:47:43.616Z,4.05
2022-09-18T02:48:58.666Z,3.74
2022-09-18T02:49:43.720Z,4.29
2022-09-18T02:51:21.635Z,4.57
2022-09-18T02:52:41.687Z,3.53
2022-09-18T02:53:46.634Z,3.29
2022-09-18T02:54:38.624Z,3.94
2022-09-18T02:55:22.677Z,4.26
2022-09-18T02:56:12.588Z,3.86
2022-09-18T02:57:21.598Z,3.90
2022-09-18T02:58:03.682Z,3.96
2022-09-18T02:58:58.134Z,3.45
2022-09-18T02:59:43.654Z,3.49
2022-09-18T03:00:25.864Z,3.58
2022-09-18T03:01:09.624Z,4.64
2022-09-18T03:01:50.800Z,5.96
2022-09-18T03:02:32.688Z,6.75
2022-09-18T03:03:20.696Z,9.09
2022-09-18T03:04:01.592Z,7.35
2022-09-18T03:04:41.677Z,6.19
2022-09-18T03:05:22.622Z,5.50
2022-09-18T03:06:03.687Z,4.68
2022-09-18T03:06:43.606Z,4.49
2022-09-18T03:07:24.696Z,5.44
2022-09-18T03:08:04.604Z,4.96
2022-09-18T03:08:46.354Z,4.75
2022-09-18T03:09:27.593Z,6.22
2022-09-18T03:10:08.495Z,4.57
2022-09-18T03:10:48.623Z,4.45
2022-09-18T03:11:29.665Z,5.64
2022-09-18T03:12:09.592Z,7.57
2022-09-18T03:12:49.675Z,5.44
2022-09-18T03:13:29.616Z,4.79
2022-09-18T03:14:10.852Z,4.84
2022-09-18T03:14:50.608Z,7.20
2022-09-18T03:15:30.689Z,9.19
2022-09-18T03:16:10.678Z,4.84
2022-09-18T03:16:51.686Z,4.31
2022-09-18T03:17:31.595Z,5.26
2022-09-18T03:18:11.690Z,5.38
2022-09-18T03:18:51.605Z,5.38
2022-09-18T03:19:31.731Z,3.99
2022-09-18T03:20:13.623Z,4.15
2022-09-18T03:20:54.719Z,4.46
2022-09-18T03:21:35.614Z,3.64
2022-09-18T03:22:16.677Z,4.19
2022-09-18T03:22:56.579Z,5.15
2022-09-18T03:23:39.440Z,5.35
2022-09-18T03:24:22.576Z,5.68
2022-09-18T03:25:02.633Z,5.00
2022-09-18T03:25:43.597Z,4.86
2022-09-18T03:26:24.695Z,4.84
2022-09-18T03:27:04.616Z,4.18
2022-09-18T03:27:45.646Z,4.25
2022-09-18T03:28:25.585Z,4.45
2022-09-18T03:29:05.967Z,4.93
2022-09-18T03:29:46.584Z,6.13
2022-09-18T03:30:26.654Z,5.06
2022-09-18T03:31:06.605Z,5.03
2022-09-18T03:31:47.827Z,5.63
2022-09-18T03:32:27.765Z,4.72
2022-09-18T03:33:08.737Z,4.84
2022-09-18T03:33:48.635Z,4.46
2022-09-18T03:34:28.644Z,4.28
2022-09-18T03:35:08.589Z,4.22
2022-09-18T03:35:49.641Z,5.15
2022-09-18T03:36:29.565Z,5.95
2022-09-18T03:37:10.641Z,5.45
2022-09-18T03:37:50.587Z,6.38
2022-09-18T03:38:31.638Z,5.40
2022-09-18T03:39:12.570Z,4.24
2022-09-18T03:39:52.672Z,4.53
2022-09-18T03:40:32.621Z,4.95
2022-09-18T03:41:13.673Z,5.31
2022-09-18T03:41:53.560Z,4.88
2022-09-18T03:42:33.625Z,6.04
2022-09-18T03:43:13.583Z,7.06
2022-09-18T03:43:54.945Z,7.41
2022-09-18T03:44:35.582Z,7.29
2022-09-18T03:45:17.829Z,5.75
2022-09-18T03:45:57.561Z,6.36
2022-09-18T03:46:37.664Z,5.85
2022-09-18T03:47:17.553Z,4.15
2022-09-18T03:47:57.687Z,3.51
2022-09-18T03:48:37.586Z,4.50
2022-09-18T03:49:18.659Z,5.20
2022-09-18T03:49:58.550Z,3.65
2022-09-18T03:50:38.616Z,4.49
2022-09-18T03:51:18.553Z,6.01
2022-09-18T03:51:58.617Z,4.05
2022-09-18T03:52:38.561Z,3.89
2022-09-18T03:53:18.621Z,5.51
2022-09-18T03:53:58.708Z,4.13
2022-09-18T03:54:40.633Z,6.10
2022-09-18T03:55:20.557Z,5.38
2022-09-18T03:56:00.642Z,5.22
2022-09-18T03:56:40.545Z,4.55
2022-09-18T03:57:20.639Z,4.31
2022-09-18T03:58:00.566Z,5.14
2022-09-18T03:58:40.617Z,6.24
2022-09-18T03:59:20.593Z,5.74
2022-09-18T04:00:01.648Z,4.44
2022-09-18T04:00:48.544Z,4.71
2022-09-18T04:01:22.659Z,5.32
2022-09-18T04:02:09.593Z,4.66
2022-09-18T04:02:43.647Z,3.72
2022-09-18T04:03:30.524Z,3.43
2022-09-18T04:04:04.582Z,4.21
2022-09-18T04:04:44.576Z,5.45
2022-09-18T04:05:24.647Z,5.99
2022-09-18T04:06:04.540Z,5.22
2022-09-18T04:06:44.600Z,7.49
2022-09-18T04:07:25.544Z,8.31
2022-09-18T04:08:05.644Z,5.51
2022-09-18T04:08:45.559Z,6.72
2022-09-18T04:09:25.623Z,7.46
2022-09-18T04:10:05.576Z,6.18
2022-09-18T04:10:45.632Z,8.20
2022-09-18T04:11:26.589Z,11.34
2022-09-18T04:12:07.642Z,12.29
2022-09-18T04:12:50.532Z,12.57
2022-09-18T04:13:30.628Z,13.35
2022-09-18T04:14:10.523Z,16.73
2022-09-18T04:14:50.678Z,20.24
2022-09-18T04:15:31.559Z,21.88
2022-09-18T04:16:11.672Z,16.54
2022-09-18T04:16:51.527Z,14.31
2022-09-18T04:17:31.613Z,18.40
2022-09-18T04:18:12.550Z,20.08
2022-09-18T04:18:52.626Z,16.99
2022-09-18T04:19:32.539Z,14.24
2022-09-18T04:20:13.589Z,9.82
2022-09-18T04:20:54.565Z,8.93
2022-09-18T04:21:34.595Z,12.71
2022-09-18T04:22:15.516Z,13.60
2022-09-18T04:22:55.588Z,15.04
2022-09-18T04:23:35.525Z,20.66
2022-09-18T04:24:15.653Z,21.00
2022-09-18T04:24:56.528Z,15.34
2022-09-18T04:25:36.678Z,12.70
2022-09-18T04:26:16.549Z,12.16
2022-09-18T04:26:56.640Z,9.69
2022-09-18T04:27:37.518Z,10.14
2022-09-18T04:28:17.615Z,8.51
2022-09-18T04:28:58.558Z,5.97
2022-09-18T04:29:38.627Z,4.61
2022-09-18T04:30:19.540Z,6.45
2022-09-18T04:30:59.819Z,9.10
2022-09-18T04:31:39.644Z,9.80
2022-09-18T04:32:20.631Z,11.51
2022-09-18T04:33:00.527Z,13.29
2022-09-18T04:33:40.613Z,11.69
2022-09-18T04:34:22.513Z,12.48
2022-09-18T04:35:02.669Z,10.99
2022-09-18T04:35:42.502Z,11.38
2022-09-18T04:36:22.632Z,13.25
2022-09-18T04:37:05.766Z,13.18
2022-09-18T04:37:50.629Z,10.49
2022-09-18T04:38:34.514Z,9.49
2022-09-18T04:39:14.965Z,10.01
2022-09-18T04:39:55.590Z,7.90
2022-09-18T04:40:35.657Z,6.65
2022-09-18T04:41:15.504Z,7.70
2022-09-18T04:41:55.958Z,7.79
2022-09-18T04:42:35.534Z,5.68
2022-09-18T04:43:15.597Z,5.60
2022-09-18T04:43:55.539Z,5.36
2022-09-18T04:44:35.615Z,5.76
2022-09-18T04:45:17.532Z,5.94
2022-09-18T04:45:57.606Z,4.86
2022-09-18T04:46:37.613Z,5.75
2022-09-18T04:47:17.594Z,7.30
2022-09-18T04:47:57.533Z,6.20
2022-09-18T04:48:37.697Z,5.68
2022-09-18T04:49:17.506Z,5.40
2022-09-18T04:49:57.718Z,5.60
2022-09-18T04:50:37.556Z,5.94
2022-09-18T04:51:17.575Z,6.97
2022-09-18T04:51:58.511Z,6.40
2022-09-18T04:52:38.589Z,5.31
2022-09-18T04:53:19.584Z,5.16
2022-09-18T04:53:59.617Z,4.54
2022-09-18T04:54:39.502Z,4.80
2022-09-18T04:55:19.743Z,5.68
2022-09-18T04:55:59.495Z,4.50
2022-09-18T04:56:40.810Z,4.96
2022-09-18T04:57:20.492Z,5.18
2022-09-18T04:58:00.596Z,3.72
2022-09-18T04:58:41.556Z,4.26
2022-09-18T04:59:21.569Z,4.05
2022-09-18T05:00:01.508Z,3.74
2022-09-18T05:00:41.756Z,4.57
2022-09-18T05:01:21.567Z,4.70
2022-09-18T05:02:02.597Z,4.44
2022-09-18T05:02:45.498Z,4.00
2022-09-18T05:03:25.582Z,3.42
2022-09-18T05:04:05.664Z,4.24
2022-09-18T05:04:46.610Z,4.05
2022-09-18T05:05:26.499Z,3.47
2022-09-18T05:06:06.545Z,3.67
2022-09-18T05:06:46.494Z,4.53
2022-09-18T05:07:27.630Z,5.07
2022-09-18T05:08:08.487Z,4.24
2022-09-18T05:08:48.554Z,4.36
2022-09-18T05:09:28.563Z,5.28
2022-09-18T05:10:10.674Z,4.43
2022-09-18T05:10:50.508Z,4.39
2022-09-18T05:11:33.644Z,4.05
2022-09-18T05:12:16.505Z,3.90
2022-09-18T05:12:56.595Z,4.09
2022-09-18T05:13:37.478Z,3.99
2022-09-18T05:14:17.606Z,4.18
2022-09-18T05:14:57.530Z,4.80
2022-09-18T05:15:37.652Z,3.56
2022-09-18T05:16:19.615Z,3.70
2022-09-18T05:16:59.939Z,6.20
2022-09-18T05:17:39.485Z,6.29
2022-09-18T05:18:19.551Z,4.10
2022-09-18T05:19:00.485Z,3.17
2022-09-18T05:19:40.549Z,3.16
2022-09-18T05:21:39.476Z,3.70
2022-09-18T05:22:33.477Z,4.40
2022-09-18T05:23:28.492Z,3.84
2022-09-18T05:24:22.493Z,4.06
2022-09-18T05:25:17.488Z,4.25
2022-09-18T05:25:58.518Z,6.10
2022-09-18T05:26:38.560Z,6.24
2022-09-18T05:27:18.465Z,5.36
2022-09-18T05:28:12.070Z,6.44
2022-09-18T05:28:58.590Z,6.61
2022-09-18T05:29:38.635Z,7.60
2022-09-18T05:30:19.480Z,7.86
2022-09-18T05:31:06.564Z,9.10
2022-09-18T05:32:00.473Z,8.93
2022-09-18T05:32:58.153Z,6.54
2022-09-18T05:33:52.472Z,5.99
2022-09-18T05:34:46.483Z,6.36
2022-09-18T05:35:43.463Z,4.35
2022-09-18T05:36:30.492Z,4.34
2022-09-18T05:37:04.570Z,4.93
2022-09-18T05:37:51.457Z,4.75
2022-09-18T05:38:25.541Z,4.00
2022-09-18T05:39:17.274Z,5.61
2022-09-18T05:39:51.581Z,6.54
2022-09-18T05:40:42.599Z,4.94
2022-09-18T05:41:16.517Z,5.00
2022-09-18T05:41:59.529Z,4.93
2022-09-18T05:42:39.561Z,3.65
2022-09-18T05:43:19.494Z,3.56
2022-09-18T05:43:59.537Z,3.20
2022-09-18T05:44:40.456Z,3.28
2022-09-18T05:45:22.586Z,4.00
2022-09-18T05:46:03.434Z,3.97
2022-09-18T05:46:43.566Z,2.97
2022-09-18T05:47:23.471Z,3.51
2022-09-18T05:48:14.284Z,3.09
2022-09-18T05:48:56.501Z,3.26
2022-09-18T05:49:36.582Z,4.41
2022-09-18T05:50:17.450Z,4.04
2022-09-18T05:50:57.557Z,4.49
2022-09-18T05:51:37.448Z,4.36
2022-09-18T05:52:18.493Z,4.46
2022-09-18T05:53:09.475Z,4.93
2022-09-18T05:53:49.613Z,4.69
2022-09-18T05:54:29.426Z,4.44
2022-09-18T05:55:09.671Z,3.88
2022-09-18T05:55:50.437Z,4.38
2022-09-18T05:56:30.512Z,5.13
2022-09-18T05:57:10.442Z,5.64
2022-09-18T05:57:50.558Z,4.93
2022-09-18T05:58:31.484Z,4.82
2022-09-18T05:59:11.529Z,4.16
2022-09-18T05:59:51.433Z,3.66
2022-09-18T06:00:33.482Z,4.13
2022-09-18T06:01:14.502Z,4.53
2022-09-18T06:01:54.536Z,4.90
2022-09-18T06:02:35.522Z,4.93
2022-09-18T06:03:21.581Z,4.20
2022-09-18T06:04:02.721Z,3.71
2022-09-18T06:04:42.623Z,3.30
2022-09-18T06:05:22.414Z,3.75
2022-09-18T06:06:02.520Z,4.80
2022-09-18T06:06:43.420Z,4.05
2022-09-18T06:07:23.498Z,3.97
2022-09-18T06:08:08.457Z,3.83
2022-09-18T06:08:48.493Z,4.60
2022-09-18T06:09:29.469Z,4.99
2022-09-18T06:10:09.510Z,3.81
2022-09-18T06:10:49.459Z,4.36
2022-09-18T06:11:29.479Z,3.34
2022-09-18T06:12:09.432Z,3.20
2022-09-18T06:12:49.513Z,3.10
2022-09-18T06:13:29.409Z,3.54
2022-09-18T06:14:09.491Z,4.56
2022-09-18T06:14:50.471Z,4.00
2022-09-18T06:15:30.521Z,3.49
2022-09-18T06:16:11.479Z,4.54
2022-09-18T06:16:51.499Z,5.65
2022-09-18T06:17:31.421Z,5.72
2022-09-18T06:18:14.343Z,3.45
2022-09-18T06:18:55.403Z,4.26
2022-09-18T06:19:35.513Z,4.21
2022-09-18T06:20:16.432Z,3.25
2022-09-18T06:21:02.473Z,3.21
2022-09-18T06:21:42.412Z,3.47
2022-09-18T06:22:22.581Z,3.51
2022-09-18T06:23:09.477Z,2.90
2022-09-18T06:23:49.504Z,3.09
2022-09-18T06:24:29.396Z,2.39
2022-09-18T06:25:11.471Z,2.88
2022-09-18T06:25:52.436Z,3.31
2022-09-18T06:26:32.470Z,3.85
2022-09-18T06:27:13.436Z,3.56
2022-09-18T06:27:58.463Z,3.86
2022-09-18T06:28:40.414Z,3.09
2022-09-18T06:29:20.580Z,3.05
2022-09-18T06:30:00.413Z,3.56
2022-09-18T06:30:42.544Z,4.54
2022-09-18T06:31:23.521Z,4.65
2022-09-18T06:32:03.495Z,3.16
2022-09-18T06:32:43.407Z,3.05
2022-09-18T06:33:23.517Z,3.64
2022-09-18T06:34:04.386Z,3.61
2022-09-18T06:34:44.503Z,3.44
2022-09-18T06:35:25.418Z,3.17
2022-09-18T06:36:08.802Z,3.00
2022-09-18T06:36:49.440Z,3.40
2022-09-18T06:37:30.464Z,4.78
2022-09-18T06:38:17.398Z,4.68
2022-09-18T06:38:58.522Z,3.24
2022-09-18T06:39:38.406Z,3.21
2022-09-18T06:40:18.934Z,4.00
2022-09-18T06:41:01.409Z,3.99
2022-09-18T06:41:42.868Z,4.38
2022-09-18T06:42:23.497Z,4.55
2022-09-18T06:43:04.532Z,4.13
2022-09-18T06:43:44.393Z,5.03
2022-09-18T06:44:25.993Z,4.40
2022-09-18T06:45:06.384Z,2.61
2022-09-18T06:45:47.466Z,3.58
2022-09-18T06:46:27.417Z,4.59
2022-09-18T06:47:07.516Z,4.04
2022-09-18T06:47:48.413Z,3.08
2022-09-18T06:48:32.537Z,3.40
2022-09-18T06:49:13.404Z,3.15
2022-09-18T06:49:53.457Z,2.95
2022-09-18T06:50:33.378Z,2.96
2022-09-18T06:51:14.488Z,3.08
2022-09-18T06:51:55.446Z,3.30
2022-09-18T06:52:49.393Z,3.33
2022-09-18T06:53:43.399Z,3.72
2022-09-18T06:54:37.406Z,3.36
2022-09-18T06:55:33.396Z,3.71
2022-09-18T06:56:27.389Z,4.15
2022-09-18T06:57:24.116Z,3.84
2022-09-18T06:58:11.416Z,3.94
2022-09-18T06:58:45.513Z,4.26
2022-09-18T06:59:32.364Z,3.19
2022-09-18T07:00:06.824Z,3.46
2022-09-18T07:00:53.430Z,3.25
2022-09-18T07:01:27.537Z,2.90
2022-09-18T07:02:20.626Z,3.25
2022-09-18T07:03:04.598Z,2.67
2022-09-18T07:03:44.396Z,2.60
2022-09-18T07:04:26.535Z,3.40
2022-09-18T07:05:07.372Z,3.83
2022-09-18T07:05:50.445Z,3.60
2022-09-18T07:06:33.348Z,2.86
2022-09-18T07:07:14.452Z,3.29
2022-09-18T07:07:55.375Z,3.47
2022-09-18T07:08:35.452Z,3.00
2022-09-18T07:09:16.406Z,3.34
2022-09-18T07:09:56.436Z,3.55
2022-09-18T07:10:36.380Z,3.70
2022-09-18T07:11:16.452Z,3.56
2022-09-18T07:11:57.401Z,3.16
2022-09-18T07:12:37.531Z,2.83
2022-09-18T07:13:17.386Z,2.45
2022-09-18T07:13:57.454Z,2.45
2022-09-18T07:14:37.396Z,2.51
2022-09-18T07:15:17.475Z,2.34
2022-09-18T07:15:57.412Z,2.83
2022-09-18T07:16:37.543Z,2.65
2022-09-18T07:17:21.241Z,2.59
2022-09-18T07:18:09.127Z,2.39
2022-09-18T07:18:50.395Z,2.16
2022-09-18T07:19:30.506Z,2.38
2022-09-18T07:20:11.422Z,3.11
2022-09-18T07:20:51.621Z,2.83
2022-09-18T07:21:31.364Z,2.54
2022-09-18T07:22:11.481Z,2.95
2022-09-18T07:23:03.364Z,3.38
2022-09-18T07:23:43.413Z,3.26
2022-09-18T07:24:23.344Z,3.20
2022-09-18T07:24:57.061Z,2.65
2022-09-18T07:25:40.367Z,3.21
2022-09-18T07:26:14.480Z,3.00
2022-09-18T07:26:48.132Z,2.26
2022-09-18T07:27:28.364Z,2.83
2022-09-18T07:28:02.441Z,2.85
2022-09-18T07:28:36.071Z,3.11
2022-09-18T07:29:16.345Z,3.64
2022-09-18T07:29:50.409Z,2.35
2022-09-18T07:30:24.050Z,2.72
2022-09-18T07:31:12.424Z,2.85
2022-09-18T07:31:46.540Z,3.01
2022-09-18T07:32:22.048Z,3.01
2022-09-18T07:33:02.352Z,3.64
2022-09-18T07:33:37.208Z,3.06
2022-09-18T07:34:12.320Z,3.01
2022-09-18T07:34:53.355Z,3.66
2022-09-18T07:35:28.534Z,2.95
2022-09-18T07:36:03.799Z,2.51
2022-09-18T07:36:44.367Z,2.08
2022-09-18T07:37:18.448Z,2.17
2022-09-18T07:37:52.138Z,1.95
2022-09-18T07:38:32.338Z,2.50
2022-09-18T07:39:06.477Z,2.31
2022-09-18T07:39:40.050Z,2.41
2022-09-18T07:40:20.398Z,2.03
2022-09-18T07:40:54.755Z,1.94
2022-09-18T07:41:29.068Z,2.15
2022-09-18T07:42:09.363Z,2.86
2022-09-18T07:42:43.582Z,2.56
2022-09-18T07:43:17.020Z,2.35
2022-09-18T07:43:58.319Z,2.55
2022-09-18T07:44:34.311Z,2.01
2022-09-18T07:45:21.345Z,1.99
2022-09-18T07:45:55.438Z,2.10
2022-09-18T07:46:42.407Z,1.90
2022-09-18T07:47:23.471Z,1.98
2022-09-18T07:48:21.358Z,1.60
2022-09-18T07:49:15.356Z,1.44
2022-09-18T07:50:09.361Z,1.20
2022-09-18T07:51:03.346Z,1.30
2022-09-18T07:51:57.326Z,1.34
2022-09-18T07:52:44.403Z,1.69
2022-09-18T07:53:18.684Z,1.64
2022-09-18T07:54:05.332Z,1.85
2022-09-18T07:54:39.412Z,1.67
2022-09-18T07:55:28.363Z,1.56
2022-09-18T07:56:02.386Z,1.74
2022-09-18T07:56:49.331Z,1.59
2022-09-18T07:57:23.632Z,1.96
2022-09-18T07:58:07.337Z,2.33
2022-09-18T07:58:47.651Z,2.06
2022-09-18T07:59:27.334Z,2.67
2022-09-18T08:00:10.758Z,2.20
2022-09-18T08:00:51.369Z,1.92
2022-09-18T08:01:31.445Z,2.15
2022-09-18T08:02:12.398Z,2.54
2022-09-18T08:02:52.595Z,2.29
2022-09-18T08:03:34.313Z,2.11
2022-09-18T08:04:17.391Z,3.25
2022-09-18T08:04:57.309Z,2.71
2022-09-18T08:05:38.451Z,2.49
2022-09-18T08:06:19.323Z,2.34
2022-09-18T08:07:04.450Z,2.94
2022-09-18T08:07:45.341Z,2.97
2022-09-18T08:08:25.659Z,2.64
2022-09-18T08:09:06.432Z,2.60
2022-09-18T08:09:47.420Z,2.70
2022-09-18T08:10:28.343Z,2.91
2022-09-18T08:11:08.451Z,3.15
2022-09-18T08:11:48.323Z,3.20
2022-09-18T08:12:28.471Z,2.91
2022-09-18T08:13:09.324Z,2.47
2022-09-18T08:13:50.409Z,3.24
2022-09-18T08:14:30.373Z,3.25
2022-09-18T08:15:11.397Z,2.09
2022-09-18T08:15:51.348Z,2.40
2022-09-18T08:16:31.464Z,3.24
2022-09-18T08:17:11.304Z,3.65
2022-09-18T08:17:52.383Z,3.20
2022-09-18T08:18:32.331Z,2.25
2022-09-18T08:19:12.966Z,2.39
2022-09-18T08:19:53.343Z,2.71
2022-09-18T08:20:33.542Z,2.83
2022-09-18T08:21:14.308Z,2.61
2022-09-18T08:21:54.553Z,2.35
2022-09-18T08:22:34.302Z,2.60
2022-09-18T08:23:15.438Z,2.53
2022-09-18T08:23:56.333Z,2.26
2022-09-18T08:24:36.370Z,2.46
2022-09-18T08:25:17.343Z,3.05
2022-09-18T08:25:57.761Z,3.42
2022-09-18T08:26:37.343Z,2.66
2022-09-18T08:27:17.405Z,2.69
2022-09-18T08:27:57.302Z,2.09
2022-09-18T08:28:38.539Z,2.72
2022-09-18T08:29:25.335Z,3.04
2022-09-18T08:30:06.139Z,2.78
2022-09-18T08:30:46.800Z,3.33
2022-09-18T08:31:27.515Z,3.17
2022-09-18T08:32:10.006Z,3.14
2022-09-18T08:32:50.499Z,3.35
2022-09-18T08:33:31.360Z,3.64
2022-09-18T08:34:11.575Z,3.65
2022-09-18T08:34:51.475Z,3.44
2022-09-18T08:35:32.450Z,4.24
2022-09-18T08:36:13.331Z,3.61
2022-09-18T08:36:53.415Z,3.35
2022-09-18T08:37:35.290Z,3.30
2022-09-18T08:38:15.805Z,2.08
2022-09-18T08:38:58.300Z,2.46
2022-09-18T08:39:39.013Z,3.17
2022-09-18T08:40:24.052Z,2.92
2022-09-18T08:41:44.383Z,2.74
2022-09-18T08:42:55.344Z,2.97
2022-09-18T08:44:05.368Z,3.29
2022-09-18T08:45:29.351Z,2.83
2022-09-18T08:46:56.473Z,2.47
2022-09-18T08:47:56.329Z,2.59
2022-09-18T08:49:26.373Z,2.22
2022-09-18T08:50:38.496Z,2.79
2022-09-18T08:51:43.148Z,3.51
2022-09-18T08:52:30.744Z,3.39
2022-09-18T08:53:26.405Z,3.28
2022-09-18T08:54:40.344Z,2.90
2022-09-18T08:55:45.340Z,3.54
2022-09-18T08:56:30.319Z,3.38
2022-09-18T08:57:23.465Z,2.83
2022-09-18T08:58:22.464Z,2.90
2022-09-18T08:59:07.458Z,3.15
2022-09-18T09:00:00.381Z,4.03
2022-09-18T09:00:48.451Z,3.72
2022-09-18T09:01:33.342Z,3.26
2022-09-18T09:02:49.647Z,3.42
2022-09-18T09:03:44.302Z,3.17
2022-09-18T09:04:34.785Z,3.70
2022-09-18T09:05:21.408Z,2.99
2022-09-18T09:06:23.357Z,2.69
2022-09-18T09:07:30.313Z,3.33
2022-09-18T09:10:10.383Z,3.03
2022-09-18T09:11:13.437Z,3.94
2022-09-18T09:12:49.303Z,3.80
2022-09-18T09:13:53.507Z,4.11
2022-09-18T09:14:56.629Z,4.28
2022-09-18T09:15:44.364Z,3.72
2022-09-18T09:16:38.404Z,3.44
2022-09-18T09:17:44.330Z,3.21
2022-09-18T09:18:26.371Z,3.33
2022-09-18T09:19:36.445Z,3.61
2022-09-18T09:20:30.518Z,3.95
2022-09-18T09:22:00.531Z,3.34
2022-09-18T09:22:49.414Z,3.72
2022-09-18T09:23:52.310Z,2.81
2022-09-18T09:24:41.463Z,2.70
2022-09-18T09:25:46.312Z,3.06
2022-09-18T09:26:32.252Z,3.39
2022-09-18T09:27:27.380Z,3.28
2022-09-18T09:28:33.327Z,3.05
2022-09-18T09:29:32.307Z,3.10
2022-09-18T09:30:25.321Z,2.53
2022-09-18T09:31:11.409Z,2.84
2022-09-18T09:31:57.702Z,2.97
2022-09-18T09:33:08.340Z,2.78
2022-09-18T09:34:04.539Z,3.09
2022-09-18T09:34:59.245Z,3.74
2022-09-18T09:35:48.303Z,3.70
2022-09-18T09:36:36.279Z,3.22
2022-09-18T09:37:23.906Z,2.88
2022-09-18T09:38:11.349Z,2.78
2022-09-18T09:39:22.396Z,2.40
2022-09-18T09:40:25.327Z,2.56
2022-09-18T09:41:43.371Z,2.91
2022-09-18T09:42:32.294Z,3.03
2022-09-18T09:43:56.295Z,3.20
2022-09-18T09:45:03.309Z,3.79
2022-09-18T09:46:04.599Z,4.01
2022-09-18T09:47:38.252Z,2.71
2022-09-18T09:48:50.351Z,3.21
2022-09-18T09:49:38.282Z,4.10
2022-09-18T09:50:43.337Z,3.69
2022-09-18T09:51:37.333Z,3.64
2022-09-18T09:52:30.757Z,3.25
2022-09-18T09:53:15.295Z,3.31
2022-09-18T09:53:57.474Z,2.67
2022-09-18T09:54:39.690Z,2.60
2022-09-18T09:55:20.419Z,3.36
2022-09-18T09:56:03.262Z,3.89
2022-09-18T09:56:53.649Z,3.15
2022-09-18T09:58:10.521Z,3.38
2022-09-18T09:59:26.546Z,3.84
2022-09-18T10:00:19.288Z,3.74
2022-09-18T10:01:41.408Z,3.81
2022-09-18T10:03:08.328Z,3.74
2022-09-18T10:04:28.364Z,4.15
2022-09-18T10:05:35.276Z,3.80
2022-09-18T10:06:58.465Z,3.42
2022-09-18T10:08:14.282Z,4.34
2022-09-18T10:09:29.445Z,3.92
2022-09-18T10:10:31.244Z,3.11
2022-09-18T10:11:15.280Z,4.25
2022-09-18T10:11:57.351Z,4.32
2022-09-18T10:12:58.247Z,4.20
2022-09-18T10:13:51.504Z,4.56
2022-09-18T10:14:41.221Z,3.60